createdAt,value
2023-04-11T00:02:00.771Z,55.46
2023-04-11T00:07:24.167Z,55.31
2023-04-11T00:12:16.563Z,55.60
2023-04-11T00:17:16.491Z,55.82
2023-04-11T00:22:16.438Z,56.15
2023-04-11T00:27:16.347Z,56.54
2023-04-11T00:32:16.301Z,56.38
2023-04-11T00:37:16.196Z,56.36
2023-04-11T00:42:16.169Z,56.38
2023-04-11T00:47:16.082Z,56.53
2023-04-11T00:52:16.015Z,56.58
2023-04-11T00:57:15.942Z,56.66
2023-04-11T01:02:15.977Z,56.77
2023-04-11T01:07:15.829Z,56.78
2023-04-11T01:12:15.765Z,56.78
2023-04-11T01:17:15.708Z,56.77
2023-04-11T01:22:15.634Z,56.82
2023-04-11T01:27:15.556Z,56.87
2023-04-11T01:32:15.477Z,56.96
2023-04-11T01:37:15.406Z,57.05
2023-04-11T01:42:15.367Z,57.14
2023-04-11T01:47:15.281Z,57.20
2023-04-11T01:52:15.218Z,57.29
2023-04-11T01:57:15.247Z,57.37
2023-04-11T02:02:15.251Z,57.47
2023-04-11T02:07:15.014Z,57.51
2023-04-11T02:12:14.970Z,57.58
2023-04-11T02:17:14.900Z,57.64
2023-04-11T02:22:14.873Z,57.73
2023-04-11T02:27:14.775Z,57.83
2023-04-11T02:32:14.799Z,57.89
2023-04-11T02:37:14.645Z,57.97
2023-04-11T02:42:14.621Z,58.06
2023-04-11T02:47:14.483Z,58.12
2023-04-11T02:52:14.442Z,58.32
2023-04-11T02:57:14.363Z,58.36
2023-04-11T03:02:14.425Z,58.39
2023-04-11T03:07:14.229Z,58.49
2023-04-11T03:12:14.163Z,58.57
2023-04-11T03:17:14.090Z,58.67
2023-04-11T03:22:14.082Z,58.80
2023-04-11T03:27:13.960Z,58.91
2023-04-11T03:32:13.925Z,58.98
2023-04-11T03:37:13.829Z,59.01
2023-04-11T03:42:13.795Z,59.05
2023-04-11T03:47:13.695Z,59.08
2023-04-11T03:52:13.682Z,59.15
2023-04-11T03:57:13.567Z,59.24
2023-04-11T04:02:14.893Z,59.31
2023-04-11T04:07:13.426Z,59.34
2023-04-11T04:12:13.390Z,59.39
2023-04-11T04:17:24.273Z,59.28
2023-04-11T04:22:16.663Z,59.46
2023-04-11T04:27:16.612Z,59.58
2023-04-11T04:32:16.524Z,59.68
2023-04-11T04:37:16.465Z,59.73
2023-04-11T04:42:16.397Z,59.70
2023-04-11T04:47:16.334Z,59.66
2023-04-11T04:52:16.264Z,59.68
2023-04-11T04:57:16.196Z,59.67
2023-04-11T05:02:16.188Z,59.65
2023-04-11T05:07:16.086Z,59.68
2023-04-11T05:12:15.996Z,59.62
2023-04-11T05:17:15.947Z,59.58
2023-04-11T05:22:15.858Z,59.38
2023-04-11T05:27:15.822Z,59.42
2023-04-11T05:32:15.724Z,59.63
2023-04-11T05:37:15.688Z,59.62
2023-04-11T05:42:15.616Z,59.39
2023-04-11T05:47:15.562Z,59.39
2023-04-11T05:52:15.468Z,59.37
2023-04-11T05:57:15.413Z,59.35
2023-04-11T06:02:15.436Z,58.90
2023-04-11T06:07:15.288Z,58.66
2023-04-11T06:12:15.188Z,58.46
2023-04-11T06:17:15.156Z,58.53
2023-04-11T06:22:15.070Z,58.42
2023-04-11T06:27:15.028Z,58.32
2023-04-11T06:32:14.928Z,58.34
2023-04-11T06:37:14.929Z,58.38
2023-04-11T06:42:14.817Z,57.60
2023-04-11T06:47:14.763Z,57.57
2023-04-11T06:52:14.673Z,57.52
2023-04-11T06:57:14.622Z,56.99
2023-04-11T07:02:14.614Z,57.02
2023-04-11T07:07:14.506Z,57.02
2023-04-11T07:12:14.405Z,57.20
2023-04-11T07:17:14.373Z,56.67
2023-04-11T07:22:14.318Z,56.96
2023-04-11T07:27:14.387Z,56.98
2023-04-11T07:32:14.143Z,56.73
2023-04-11T07:37:14.097Z,56.85
2023-04-11T07:42:14.043Z,56.74
2023-04-11T07:47:13.973Z,56.37
2023-04-11T07:52:14.465Z,56.01
2023-04-11T07:57:13.837Z,55.61
2023-04-11T08:02:13.830Z,55.52
2023-04-11T08:07:13.739Z,55.36
2023-04-11T08:12:13.633Z,55.29
2023-04-11T08:17:25.211Z,54.36
2023-04-11T08:22:14.493Z,52.40
2023-04-11T08:27:13.454Z,50.52
2023-04-11T08:32:13.531Z,47.90
2023-04-11T08:37:13.321Z,49.19
2023-04-11T08:42:13.239Z,49.15
2023-04-11T08:47:13.193Z,46.12
2023-04-11T08:52:13.100Z,45.49
2023-04-11T08:57:13.068Z,45.76
2023-04-11T09:02:13.046Z,43.86
2023-04-11T09:07:12.878Z,44.26
2023-04-11T09:12:12.831Z,43.32
2023-04-11T09:17:12.765Z,41.65
2023-04-11T09:22:12.723Z,33.28
2023-04-11T09:27:12.700Z,28.76
2023-04-11T09:32:12.687Z,26.54
2023-04-11T09:37:12.501Z,33.81
2023-04-11T09:42:12.452Z,37.26
2023-04-11T09:47:12.368Z,36.45
2023-04-11T09:52:12.311Z,35.41
2023-04-11T09:57:12.265Z,31.72
2023-04-11T10:02:12.307Z,33.31
2023-04-11T10:07:12.107Z,35.46
2023-04-11T10:12:12.048Z,34.78
2023-04-11T10:17:11.987Z,27.87
2023-04-11T10:22:11.920Z,29.35
2023-04-11T10:27:11.841Z,32.80
2023-04-11T10:32:11.808Z,33.36
2023-04-11T10:37:11.714Z,30.33
2023-04-11T10:42:11.652Z,28.63
2023-04-11T10:47:11.693Z,26.75
2023-04-11T10:52:11.526Z,27.56
2023-04-11T10:57:11.419Z,23.88
2023-04-11T11:02:11.461Z,26.27
2023-04-11T11:07:11.327Z,22.31
2023-04-11T11:12:11.235Z,20.75
2023-04-11T11:17:11.178Z,20.97
2023-04-11T11:22:11.112Z,22.87
2023-04-11T11:27:11.098Z,22.61
2023-04-11T11:32:11.023Z,24.63
2023-04-11T11:37:10.907Z,19.15
2023-04-11T11:42:10.867Z,19.41
2023-04-11T11:47:11.493Z,21.62
2023-04-11T11:52:10.717Z,20.43
2023-04-11T11:57:10.702Z,25.02
2023-04-11T12:02:10.666Z,22.56
2023-04-11T12:07:10.861Z,25.22
2023-04-11T12:12:10.469Z,27.32
2023-04-11T12:17:10.377Z,27.89
2023-04-11T12:22:10.414Z,26.58
2023-04-11T12:27:10.820Z,26.25
2023-04-11T12:32:10.234Z,24.33
2023-04-11T12:37:10.097Z,26.61
2023-04-11T12:42:10.637Z,28.15
2023-04-11T12:47:09.967Z,28.30
2023-04-11T12:52:10.132Z,28.99
2023-04-11T12:57:09.849Z,28.58
2023-04-11T13:02:09.867Z,27.79
2023-04-11T13:07:09.688Z,28.45
2023-04-11T13:12:09.664Z,29.34
2023-04-11T13:17:09.577Z,29.28
2023-04-11T13:22:09.526Z,29.15
2023-04-11T13:27:09.443Z,27.27
2023-04-11T13:32:09.384Z,26.73
2023-04-11T13:37:09.430Z,26.18
2023-04-11T13:42:09.280Z,26.74
2023-04-11T13:47:09.174Z,26.67
2023-04-11T13:52:09.136Z,27.76
2023-04-11T13:57:09.048Z,28.22
2023-04-11T14:02:09.182Z,28.72
2023-04-11T14:07:08.925Z,28.76
2023-04-11T14:12:08.853Z,27.80
2023-04-11T14:17:08.876Z,27.02
2023-04-11T14:22:08.718Z,25.63
2023-04-11T14:27:08.646Z,25.53
2023-04-11T14:32:08.634Z,24.97
2023-04-11T14:37:08.572Z,25.37
2023-04-11T14:42:08.467Z,25.36
2023-04-11T14:47:08.377Z,25.14
2023-04-11T14:52:08.338Z,25.52
2023-04-11T14:57:08.267Z,25.49
2023-04-11T15:02:08.307Z,26.65
2023-04-11T15:07:08.144Z,26.82
2023-04-11T15:12:08.048Z,27.22
2023-04-11T15:17:08.005Z,27.54
2023-04-11T15:22:07.932Z,28.17
2023-04-11T15:27:07.836Z,28.82
2023-04-11T15:32:07.803Z,29.32
2023-04-11T15:37:07.777Z,29.66
2023-04-11T15:42:07.685Z,29.86
2023-04-11T15:47:07.647Z,29.68
2023-04-11T15:52:07.546Z,29.84
2023-04-11T15:57:07.450Z,29.17
2023-04-11T16:02:07.584Z,29.49
2023-04-11T16:07:07.338Z,30.65
2023-04-11T16:12:07.280Z,31.22
2023-04-11T16:17:07.998Z,31.39
2023-04-11T16:22:07.132Z,31.32
2023-04-11T16:27:07.050Z,31.82
2023-04-11T16:32:07.031Z,32.19
2023-04-11T16:37:06.943Z,32.62
2023-04-11T16:42:06.840Z,32.87
2023-04-11T16:47:06.812Z,33.05
2023-04-11T16:52:06.732Z,33.22
2023-04-11T16:57:06.718Z,33.40
2023-04-11T17:02:06.676Z,33.66
2023-04-11T17:07:06.539Z,33.91
2023-04-11T17:12:06.453Z,34.16
2023-04-11T17:17:06.476Z,34.52
2023-04-11T17:22:06.332Z,34.71
2023-04-11T17:27:06.621Z,34.91
2023-04-11T17:32:06.186Z,35.17
2023-04-11T17:37:06.132Z,35.35
2023-04-11T17:42:06.073Z,35.67
2023-04-11T17:47:06.021Z,35.94
2023-04-11T17:52:05.919Z,36.24
2023-04-11T17:57:05.898Z,36.50
2023-04-11T18:02:05.911Z,36.72
2023-04-11T18:07:05.749Z,36.91
2023-04-11T18:12:05.728Z,37.20
2023-04-11T18:17:05.645Z,37.61
2023-04-11T18:22:05.538Z,37.76
2023-04-11T18:27:05.527Z,37.95
2023-04-11T18:32:05.411Z,38.15
2023-04-11T18:37:05.413Z,38.35
2023-04-11T18:42:05.327Z,38.54
2023-04-11T18:47:06.655Z,38.74
2023-04-11T18:52:05.155Z,38.92
2023-04-11T18:57:05.074Z,39.15
2023-04-11T19:02:05.200Z,39.40
2023-04-11T19:07:04.982Z,39.53
2023-04-11T19:12:04.883Z,39.70
2023-04-11T19:17:04.842Z,39.82
2023-04-11T19:22:04.738Z,40.06
2023-04-11T19:27:04.696Z,40.23
2023-04-11T19:32:04.634Z,40.37
2023-04-11T19:37:04.588Z,40.41
2023-04-11T19:42:04.505Z,40.43
2023-04-11T19:47:04.419Z,40.54
2023-04-11T19:52:04.470Z,40.66
2023-04-11T19:57:04.338Z,40.77
2023-04-11T20:02:04.250Z,40.90
2023-04-11T20:07:04.182Z,41.00
2023-04-11T20:12:04.066Z,41.17
2023-04-11T20:17:04.074Z,41.33
2023-04-11T20:22:04.013Z,41.40
2023-04-11T20:27:03.878Z,41.50
2023-04-11T20:32:03.825Z,41.66
2023-04-11T20:37:03.754Z,41.82
2023-04-11T20:42:03.663Z,42.02
2023-04-11T20:47:03.659Z,42.07
2023-04-11T20:52:03.551Z,42.21
2023-04-11T20:57:03.485Z,42.22
2023-04-11T21:02:03.500Z,42.33
2023-04-11T21:07:03.364Z,42.44
2023-04-11T21:12:03.352Z,42.50
2023-04-11T21:17:03.284Z,42.56
2023-04-11T21:22:03.453Z,42.65
2023-04-11T21:27:03.087Z,42.74
2023-04-11T21:32:03.028Z,42.87
2023-04-11T21:37:03.031Z,42.95
2023-04-11T21:42:02.938Z,43.14
2023-04-11T21:47:02.951Z,43.49
2023-04-11T21:52:02.791Z,43.65
2023-04-11T21:57:02.673Z,43.79
2023-04-11T22:02:02.686Z,43.93
2023-04-11T22:07:02.565Z,43.96
2023-04-11T22:12:02.448Z,44.13
2023-04-11T22:17:02.441Z,44.17
2023-04-11T22:22:02.349Z,44.26
2023-04-11T22:27:02.326Z,44.34
2023-04-11T22:32:02.286Z,44.44
2023-04-11T22:37:02.160Z,44.55
2023-04-11T22:42:02.105Z,44.74
2023-04-11T22:47:02.027Z,44.77
2023-04-11T22:52:01.988Z,44.86
2023-04-11T22:57:01.900Z,44.91
2023-04-11T23:02:03.407Z,44.96
2023-04-11T23:07:01.778Z,45.04
2023-04-11T23:12:01.699Z,45.11
2023-04-11T23:17:01.679Z,45.20
2023-04-11T23:22:01.559Z,45.33
2023-04-11T23:27:01.512Z,45.47
2023-04-11T23:32:01.428Z,45.59
2023-04-11T23:37:01.460Z,45.82
2023-04-11T23:42:01.326Z,45.95
2023-04-11T23:47:01.946Z,46.29
2023-04-11T23:52:01.161Z,46.76
2023-04-11T23:57:01.235Z,47.04
